createdAt,value
2023-12-26T00:02:09.881Z,96459.31
2023-12-26T00:04:39.231Z,96456.66
2023-12-26T00:07:08.402Z,96454.75
2023-12-26T00:09:41.306Z,96463.53
2023-12-26T00:12:12.066Z,96456.00
2023-12-26T00:14:41.444Z,96457.78
2023-12-26T00:17:10.639Z,96454.34
2023-12-26T00:19:39.900Z,96450.13
2023-12-26T00:22:09.095Z,96453.72
2023-12-26T00:24:38.271Z,96451.94
2023-12-26T00:27:07.636Z,96449.63
2023-12-26T00:29:38.991Z,96456.50
2023-12-26T00:32:08.560Z,96445.16
2023-12-26T00:34:37.939Z,96450.28
2023-12-26T00:37:07.373Z,96438.31
2023-12-26T00:39:36.887Z,96449.63
2023-12-26T00:42:06.658Z,96435.34
2023-12-26T00:44:35.981Z,96435.84
2023-12-26T00:47:06.821Z,96430.75
2023-12-26T00:49:36.043Z,96426.56
2023-12-26T00:52:05.608Z,96425.78
2023-12-26T00:54:37.307Z,96424.16
2023-12-26T00:57:07.094Z,96425.91
2023-12-26T00:59:36.863Z,96423.47
2023-12-26T01:02:07.490Z,96428.72
2023-12-26T01:04:36.756Z,96427.94
2023-12-26T01:07:07.120Z,96422.84
2023-12-26T01:09:36.420Z,96429.47
2023-12-26T01:12:06.465Z,96426.16
2023-12-26T01:14:36.633Z,96418.63
2023-12-26T01:17:08.837Z,96427.41
2023-12-26T01:19:38.138Z,96426.38
2023-12-26T01:22:07.509Z,96417.09
2023-12-26T01:24:36.760Z,96419.50
2023-12-26T01:27:06.388Z,96418.63
2023-12-26T01:29:35.614Z,96421.28
2023-12-26T01:32:04.893Z,96418.09
2023-12-26T01:34:35.561Z,96419.75
2023-12-26T01:37:05.008Z,96408.00
2023-12-26T01:39:34.726Z,96406.50
2023-12-26T01:42:04.014Z,96406.25
2023-12-26T01:44:33.394Z,96401.38
2023-12-26T01:47:03.472Z,96402.03
2023-12-26T01:49:34.585Z,96397.81
2023-12-26T01:52:06.615Z,96397.69
2023-12-26T01:54:38.403Z,96404.22
2023-12-26T01:57:09.245Z,96400.00
2023-12-26T01:59:40.055Z,96401.56
2023-12-26T02:02:10.157Z,96404.22
2023-12-26T02:04:41.221Z,96408.44
2023-12-26T02:07:10.509Z,96411.09
2023-12-26T02:09:41.312Z,96412.91
2023-12-26T02:12:11.252Z,96415.56
2023-12-26T02:14:40.801Z,96416.44
2023-12-26T02:17:18.465Z,96410.56
2023-12-26T02:19:50.114Z,96413.25
2023-12-26T02:22:20.174Z,96421.00
2023-12-26T02:24:51.013Z,96417.81
2023-12-26T02:27:23.058Z,96413.50
2023-12-26T02:29:54.351Z,96416.16
2023-12-26T02:32:27.287Z,96415.28
2023-12-26T02:35:01.608Z,96415.16
2023-12-26T02:37:33.674Z,96403.16
2023-12-26T02:40:06.231Z,96413.00
2023-12-26T02:42:36.402Z,96405.34
2023-12-26T02:45:06.649Z,96406.91
2023-12-26T02:47:36.404Z,96406.66
2023-12-26T02:50:07.487Z,96407.53
2023-12-26T02:52:36.821Z,96407.53
2023-12-26T02:55:08.027Z,96408.19
2023-12-26T02:57:37.200Z,96401.94
2023-12-26T03:00:08.299Z,96407.94
2023-12-26T03:02:37.606Z,96408.69
2023-12-26T03:05:07.587Z,96405.00
2023-12-26T03:07:36.733Z,96408.34
2023-12-26T03:10:10.475Z,96407.47
2023-12-26T03:12:39.785Z,96404.03
2023-12-26T03:15:10.135Z,96405.44
2023-12-26T03:17:39.718Z,96394.34
2023-12-26T03:20:09.811Z,96397.66
2023-12-26T03:22:40.843Z,96403.63
2023-12-26T03:25:11.818Z,96397.66
2023-12-26T03:27:41.580Z,96402.75
2023-12-26T03:30:11.492Z,96404.66
2023-12-26T03:32:41.921Z,96405.91
2023-12-26T03:35:11.718Z,96405.28
2023-12-26T03:37:42.249Z,96406.28
2023-12-26T03:40:15.299Z,96400.66
2023-12-26T03:42:44.855Z,96411.09
2023-12-26T03:45:14.748Z,96401.81
2023-12-26T03:47:44.790Z,96408.94
2023-12-26T03:50:14.539Z,96409.56
2023-12-26T03:52:43.760Z,96412.38
2023-12-26T03:55:15.847Z,96415.66
2023-12-26T03:57:45.087Z,96408.78
2023-12-26T04:00:15.793Z,96412.13
2023-12-26T04:02:47.581Z,96413.09
2023-12-26T04:05:18.435Z,96410.69
2023-12-26T04:07:48.404Z,96420.25
2023-12-26T04:10:19.492Z,96420.47
2023-12-26T04:12:48.762Z,96418.97
2023-12-26T04:15:18.164Z,96422.66
2023-12-26T04:17:47.578Z,96419.44
2023-12-26T04:20:17.025Z,96413.56
2023-12-26T04:22:46.248Z,96421.22
2023-12-26T04:25:15.818Z,96422.13
2023-12-26T04:27:46.745Z,96425.66
2023-12-26T04:30:16.363Z,96432.69
2023-12-26T04:32:46.168Z,96436.13
2023-12-26T04:35:16.491Z,96439.56
2023-12-26T04:37:45.802Z,96444.78
2023-12-26T04:40:15.269Z,96443.13
2023-12-26T04:42:45.909Z,96443.91
2023-12-26T04:45:14.898Z,96444.78
2023-12-26T04:47:44.260Z,96447.34
2023-12-26T04:50:13.603Z,96454.84
2023-12-26T04:52:42.819Z,96460.97
2023-12-26T04:55:12.276Z,96466.34
2023-12-26T04:57:42.172Z,96474.09
2023-12-26T05:00:14.744Z,96464.53
2023-12-26T05:02:44.786Z,96466.34
2023-12-26T05:05:14.689Z,96477.41
2023-12-26T05:07:44.219Z,96473.41
2023-12-26T05:10:13.762Z,96477.06
2023-12-26T05:12:42.997Z,96479.72
2023-12-26T05:15:13.922Z,96484.53
2023-12-26T05:17:43.477Z,96492.31
2023-12-26T05:20:21.772Z,96487.84
2023-12-26T05:23:00.106Z,96494.53
2023-12-26T05:25:30.648Z,96498.34
2023-12-26T05:28:00.567Z,96495.34
2023-12-26T05:30:32.402Z,96504.00
2023-12-26T05:33:02.484Z,96504.88
2023-12-26T05:35:32.061Z,96510.88
2023-12-26T05:38:02.024Z,96510.22
2023-12-26T05:40:31.727Z,96516.22
2023-12-26T05:43:01.381Z,96517.09
2023-12-26T05:45:34.376Z,96526.19
2023-12-26T05:48:04.005Z,96525.28
2023-12-26T05:50:33.609Z,96529.34
2023-12-26T05:53:05.137Z,96537.00
2023-12-26T05:55:53.117Z,96536.34
2023-12-26T05:58:42.184Z,96530.47
2023-12-26T06:01:13.707Z,96532.91
2023-12-26T06:03:43.546Z,96531.50
2023-12-26T06:06:14.084Z,96537.75
2023-12-26T06:08:45.522Z,96540.28
2023-12-26T06:11:15.525Z,96543.22
2023-12-26T06:13:44.773Z,96546.78
2023-12-26T06:16:15.385Z,96551.13
2023-12-26T06:18:44.906Z,96552.88
2023-12-26T06:21:14.248Z,96555.34
2023-12-26T06:23:43.592Z,96551.13
2023-12-26T06:26:18.678Z,96557.09
2023-12-26T06:28:48.235Z,96560.53
2023-12-26T06:31:20.613Z,96561.56
2023-12-26T06:34:01.649Z,96564.59
2023-12-26T06:36:33.625Z,96559.47
2023-12-26T06:39:04.916Z,96570.06
2023-12-26T06:41:34.838Z,96574.16
2023-12-26T06:44:04.363Z,96577.06
2023-12-26T06:46:35.734Z,96583.22
2023-12-26T06:49:05.408Z,96587.53
2023-12-26T06:51:34.714Z,96581.13
2023-12-26T06:54:04.161Z,96596.69
2023-12-26T06:56:34.473Z,96600.50
2023-12-26T06:59:03.910Z,96597.19
2023-12-26T07:01:35.242Z,96607.41
2023-12-26T07:04:06.524Z,96612.97
2023-12-26T07:06:36.679Z,96609.25
2023-12-26T07:09:06.344Z,96610.13
2023-12-26T07:11:35.576Z,96615.50
2023-12-26T07:14:04.865Z,96614.84
2023-12-26T07:16:37.010Z,96619.03
2023-12-26T07:19:08.806Z,96628.28
2023-12-26T07:21:40.191Z,96633.97
2023-12-26T07:24:11.158Z,96625.72
2023-12-26T07:26:40.493Z,96631.84
2023-12-26T07:29:10.024Z,96645.25
2023-12-26T07:31:42.128Z,96654.41
2023-12-26T07:34:11.797Z,96650.22
2023-12-26T07:36:41.614Z,96663.16
2023-12-26T07:39:11.232Z,96662.22
2023-12-26T07:41:40.427Z,96658.88
2023-12-26T07:44:10.153Z,96660.34
2023-12-26T07:46:40.819Z,96672.50
2023-12-26T07:49:18.041Z,96669.28
2023-12-26T07:51:47.539Z,96668.25
2023-12-26T07:54:17.672Z,96677.50
2023-12-26T07:56:47.010Z,96668.09
2023-12-26T07:59:16.977Z,96677.13
2023-12-26T08:01:47.873Z,96680.81
2023-12-26T08:04:17.244Z,96678.59
2023-12-26T08:06:46.494Z,96683.28
2023-12-26T08:09:15.771Z,96688.63
2023-12-26T08:11:45.517Z,96693.75
2023-12-26T08:14:19.166Z,96700.66
2023-12-26T08:16:50.095Z,96704.13
2023-12-26T08:19:21.305Z,96711.66
2023-12-26T08:21:50.963Z,96711.44
2023-12-26T08:24:20.382Z,96712.19
2023-12-26T08:26:54.305Z,96713.63
2023-12-26T08:29:42.063Z,96718.75
2023-12-26T08:32:12.792Z,96719.00
2023-12-26T08:34:45.431Z,96719.47
2023-12-26T08:37:50.927Z,96729.81
2023-12-26T08:40:21.528Z,96733.75
2023-12-26T08:42:50.951Z,96737.44
2023-12-26T08:45:20.497Z,96742.66
2023-12-26T08:47:54.592Z,96748.78
2023-12-26T08:50:24.149Z,96747.91
2023-12-26T08:52:53.956Z,96751.69
2023-12-26T08:55:23.516Z,96754.72
2023-12-26T08:57:52.808Z,96761.88
2023-12-26T09:00:22.136Z,96761.09
2023-12-26T09:03:11.926Z,96768.88
2023-12-26T09:05:42.631Z,96768.13
2023-12-26T09:08:12.362Z,96772.22
2023-12-26T09:10:41.720Z,96769.56
2023-12-26T09:13:28.172Z,96780.78
2023-12-26T09:15:57.835Z,96789.34
2023-12-26T09:18:33.015Z,96791.28
2023-12-26T09:21:14.471Z,96806.78
2023-12-26T09:23:49.317Z,96811.91
2023-12-26T09:26:22.901Z,96819.25
2023-12-26T09:28:52.271Z,96826.38
2023-12-26T09:31:21.737Z,96827.94
2023-12-26T09:33:52.694Z,96830.75
2023-12-26T09:36:22.901Z,96824.19
2023-12-26T09:38:52.192Z,96833.09
2023-12-26T09:41:25.638Z,96836.31
2023-12-26T09:43:55.402Z,96837.34
2023-12-26T09:46:24.796Z,96846.03
2023-12-26T09:48:56.266Z,96844.00
2023-12-26T09:51:26.346Z,96850.81
2023-12-26T09:53:59.594Z,96859.38
2023-12-26T09:56:38.564Z,96863.84
2023-12-26T09:59:16.573Z,96874.44
2023-12-26T10:01:46.790Z,96870.44
2023-12-26T10:04:17.508Z,96873.00
2023-12-26T10:06:47.009Z,96879.03
2023-12-26T10:09:19.162Z,96888.53
2023-12-26T10:11:48.602Z,96896.06
2023-12-26T10:14:30.030Z,96900.25
2023-12-26T10:17:00.294Z,96896.25
2023-12-26T10:19:31.028Z,96904.94
2023-12-26T10:22:00.426Z,96914.53
2023-12-26T10:24:31.142Z,96911.97
2023-12-26T10:27:01.531Z,96916.56
2023-12-26T10:29:30.834Z,96914.53
2023-12-26T10:32:03.423Z,96922.47
2023-12-26T10:34:34.755Z,96927.69
2023-12-26T10:37:04.250Z,96941.94
2023-12-26T10:39:33.490Z,96937.31
2023-12-26T10:42:05.324Z,96952.38
2023-12-26T10:44:59.272Z,96947.13
2023-12-26T10:47:30.462Z,96953.44
2023-12-26T10:50:02.904Z,96953.22
2023-12-26T10:52:42.454Z,96959.34
2023-12-26T10:55:19.758Z,96967.63
2023-12-26T10:57:49.698Z,96968.06
2023-12-26T11:01:13.425Z,96968.06
2023-12-26T11:04:56.392Z,96973.19
2023-12-26T11:08:39.094Z,96983.75
2023-12-26T11:12:20.988Z,96991.09
2023-12-26T11:16:16.138Z,96990.53
2023-12-26T11:20:12.170Z,96991.28
2023-12-26T11:24:13.254Z,96997.00
2023-12-26T11:28:08.262Z,97011.03
2023-12-26T11:31:55.029Z,97015.88
2023-12-26T11:35:50.249Z,97024.56
2023-12-26T11:39:45.222Z,97036.38
2023-12-26T11:43:40.140Z,97047.91
2023-12-26T11:47:36.229Z,97063.41
2023-12-26T11:51:36.121Z,97070.34
2023-12-26T11:55:31.108Z,97079.22
2023-12-26T11:59:27.024Z,97068.91
2023-12-26T12:03:26.307Z,97099.97
2023-12-26T12:07:17.832Z,97101.34
2023-12-26T12:11:10.005Z,97120.84
2023-12-26T12:14:53.171Z,97126.72
2023-12-26T12:18:46.286Z,97129.44
2023-12-26T12:22:38.867Z,97143.03
2023-12-26T12:26:40.184Z,97154.84
2023-12-26T12:30:35.255Z,97159.31
2023-12-26T12:34:36.238Z,97166.47
2023-12-26T12:38:30.948Z,97177.50
2023-12-26T12:42:27.165Z,97190.69
2023-12-26T12:46:23.113Z,97193.00
2023-12-26T12:50:11.884Z,97205.03
2023-12-26T12:54:04.349Z,97205.41
2023-12-26T12:57:57.080Z,97218.34
2023-12-26T13:01:58.042Z,97218.97
2023-12-26T13:06:00.219Z,97230.38
2023-12-26T13:09:55.273Z,97233.81
2023-12-26T13:13:56.900Z,97236.72
2023-12-26T13:17:58.573Z,97257.72
2023-12-26T13:21:48.519Z,97262.13
2023-12-26T13:25:44.189Z,97275.38
2023-12-26T13:29:42.231Z,97290.97
2023-12-26T13:33:34.229Z,97287.91
2023-12-26T13:37:26.147Z,97287.13
2023-12-26T13:41:23.026Z,97295.94
2023-12-26T13:45:21.211Z,97307.53
2023-12-26T13:49:16.205Z,97312.59
2023-12-26T13:52:06.070Z,97312.59
2023-12-26T13:54:34.610Z,97324.09
2023-12-26T13:57:08.160Z,97322.16
2023-12-26T13:59:37.624Z,97327.41
2023-12-26T14:02:07.196Z,97333.91
2023-12-26T14:04:40.672Z,97355.63
2023-12-26T14:07:11.808Z,97342.91
2023-12-26T14:09:40.049Z,97341.03
2023-12-26T14:12:09.542Z,97348.16
2023-12-26T14:14:39.134Z,97354.94
2023-12-26T14:17:08.397Z,97365.84
2023-12-26T14:19:37.770Z,97364.19
2023-12-26T14:22:07.194Z,97367.59
2023-12-26T14:24:38.400Z,97375.59
2023-12-26T14:27:09.718Z,97379.88
2023-12-26T14:29:39.180Z,97391.41
2023-12-26T14:32:08.572Z,97382.97
2023-12-26T14:34:38.056Z,97392.00
2023-12-26T14:37:07.594Z,97390.59
2023-12-26T14:39:38.374Z,97403.50
2023-12-26T14:42:08.123Z,97395.69
2023-12-26T14:44:37.401Z,97398.75
2023-12-26T14:47:06.800Z,97406.59
2023-12-26T14:49:37.914Z,97412.34
2023-12-26T14:52:07.513Z,97421.47
2023-12-26T14:54:38.239Z,97412.91
2023-12-26T14:57:08.696Z,97407.91
2023-12-26T14:59:56.653Z,97417.25
2023-12-26T15:02:26.632Z,97419.03
2023-12-26T15:05:14.452Z,97440.09
2023-12-26T15:07:43.891Z,97438.31
2023-12-26T15:10:33.362Z,97440.75
2023-12-26T15:13:02.851Z,97446.94
2023-12-26T15:15:32.218Z,97451.16
2023-12-26T15:18:03.784Z,97448.88
2023-12-26T15:20:33.277Z,97463.28
2023-12-26T15:23:03.040Z,97458.34
2023-12-26T15:25:33.721Z,97462.41
2023-12-26T15:28:03.173Z,97464.00
2023-12-26T15:31:22.337Z,97477.19
2023-12-26T15:33:52.028Z,97479.03
2023-12-26T15:36:22.723Z,97474.25
2023-12-26T15:38:52.679Z,97484.34
2023-12-26T15:41:25.362Z,97479.41
2023-12-26T15:43:55.959Z,97481.84
2023-12-26T15:46:26.437Z,97498.66
2023-12-26T15:48:55.751Z,97498.09
2023-12-26T15:51:29.164Z,97506.84
2023-12-26T15:54:01.925Z,97502.50
2023-12-26T15:56:32.953Z,97508.13
2023-12-26T15:59:02.823Z,97504.53
2023-12-26T16:01:34.564Z,97499.25
2023-12-26T16:04:03.952Z,97511.91
2023-12-26T16:06:34.953Z,97509.84
2023-12-26T16:09:04.378Z,97514.06
2023-12-26T16:11:36.674Z,97523.09
2023-12-26T16:14:09.304Z,97520.09
2023-12-26T16:16:41.082Z,97528.16
2023-12-26T16:19:15.293Z,97537.91
2023-12-26T16:21:44.666Z,97525.00
2023-12-26T16:24:18.598Z,97519.94
2023-12-26T16:27:21.957Z,97519.06
2023-12-26T16:29:53.841Z,97524.28
2023-12-26T16:32:24.021Z,97529.44
2023-12-26T16:34:53.534Z,97535.47
2023-12-26T16:37:24.320Z,97535.47
2023-12-26T16:39:54.041Z,97521.38
2023-12-26T16:42:24.742Z,97502.88
2023-12-26T16:44:55.301Z,97522.78
2023-12-26T16:47:24.573Z,97525.22
2023-12-26T16:49:55.306Z,97531.88
2023-12-26T16:52:26.757Z,97535.47
2023-12-26T16:54:56.125Z,97542.88
2023-12-26T16:57:28.320Z,97561.75
2023-12-26T16:59:57.574Z,97564.91
2023-12-26T17:02:26.889Z,97550.53
2023-12-26T17:04:56.182Z,97552.34
2023-12-26T17:07:25.363Z,97557.56
2023-12-26T17:09:54.849Z,97563.88
2023-12-26T17:12:25.712Z,97567.31
2023-12-26T17:14:56.927Z,97557.13
2023-12-26T17:17:28.185Z,97552.63
2023-12-26T17:19:57.432Z,97567.63
2023-12-26T17:22:26.772Z,97568.66
2023-12-26T17:24:57.174Z,97577.53
2023-12-26T17:27:27.673Z,97579.19
2023-12-26T17:29:58.324Z,97582.31
2023-12-26T17:32:27.643Z,97576.00
2023-12-26T17:34:58.054Z,97578.41
2023-12-26T17:37:28.729Z,97577.38
2023-12-26T17:39:58.886Z,97581.88
2023-12-26T17:42:28.375Z,97585.03
2023-12-26T17:44:59.760Z,97575.13
2023-12-26T17:47:29.456Z,97585.03
2023-12-26T17:49:58.929Z,97586.38
2023-12-26T17:52:28.257Z,97601.25
2023-12-26T17:54:57.586Z,97594.19
2023-12-26T17:57:27.437Z,97600.78
2023-12-26T17:59:56.682Z,97600.34
2023-12-26T18:02:27.627Z,97604.81
2023-12-26T18:04:57.865Z,97609.50
2023-12-26T18:07:27.159Z,97605.44
2023-12-26T18:09:56.533Z,97617.31
2023-12-26T18:12:25.918Z,97611.88
2023-12-26T18:14:55.152Z,97615.50
2023-12-26T18:17:24.823Z,97614.16
2023-12-26T18:19:56.049Z,97619.09
2023-12-26T18:22:25.425Z,97621.97
2023-12-26T18:24:54.588Z,97626.00
2023-12-26T18:27:25.026Z,97620.91
2023-12-26T18:29:54.556Z,97623.91
2023-12-26T18:32:23.943Z,97615.66
2023-12-26T18:34:55.662Z,97623.59
2023-12-26T18:37:25.426Z,97616.41
2023-12-26T18:40:13.693Z,97617.16
2023-12-26T18:42:42.955Z,97615.22
2023-12-26T18:45:13.926Z,97630.38
2023-12-26T18:47:45.473Z,97624.22
2023-12-26T18:50:17.032Z,97628.28
2023-12-26T18:52:46.505Z,97636.38
2023-12-26T18:55:16.468Z,97637.88
2023-12-26T18:57:46.160Z,97641.47
2023-12-26T19:00:16.686Z,97648.84
2023-12-26T19:02:46.160Z,97638.78
2023-12-26T19:05:20.425Z,97629.31
2023-12-26T19:07:49.645Z,97626.00
2023-12-26T19:10:19.289Z,97638.16
2023-12-26T19:12:50.033Z,97629.16
2023-12-26T19:15:21.662Z,97632.16
2023-12-26T19:17:51.425Z,97624.38
2023-12-26T19:20:22.433Z,97633.69
2023-12-26T19:22:51.635Z,97626.75
2023-12-26T19:25:20.793Z,97633.97
2023-12-26T19:27:50.036Z,97635.91
2023-12-26T19:30:19.339Z,97641.31
2023-12-26T19:32:48.827Z,97638.00
2023-12-26T19:35:18.098Z,97639.09
2023-12-26T19:37:48.827Z,97634.28
2023-12-26T19:40:19.919Z,97634.28
2023-12-26T19:42:50.262Z,97627.66
2023-12-26T19:45:20.489Z,97624.81
2023-12-26T19:47:50.178Z,97620.47
2023-12-26T19:50:19.936Z,97626.00
2023-12-26T19:52:50.664Z,97619.25
2023-12-26T19:55:20.066Z,97620.91
2023-12-26T19:57:49.438Z,97616.13
2023-12-26T20:00:20.764Z,97628.13
2023-12-26T20:02:50.521Z,97617.31
2023-12-26T20:05:19.956Z,97627.66
2023-12-26T20:07:50.706Z,97623.44
2023-12-26T20:10:20.514Z,97615.06
2023-12-26T20:12:49.993Z,97616.88
2023-12-26T20:15:19.318Z,97612.06
2023-12-26T20:17:48.845Z,97604.53
2023-12-26T20:20:19.470Z,97607.22
2023-12-26T20:22:48.642Z,97609.94
2023-12-26T20:25:22.150Z,97609.19
2023-12-26T20:27:51.422Z,97609.19
2023-12-26T20:30:24.356Z,97605.88
2023-12-26T20:32:54.029Z,97612.81
2023-12-26T20:35:23.427Z,97612.81
2023-12-26T20:37:52.688Z,97620.72
2023-12-26T20:40:25.864Z,97619.84
2023-12-26T20:42:54.979Z,97614.16
2023-12-26T20:45:24.531Z,97619.56
2023-12-26T20:47:54.306Z,97609.66
2023-12-26T20:50:23.997Z,97611.44
2023-12-26T20:52:53.366Z,97604.66
2023-12-26T20:55:22.649Z,97620.44
2023-12-26T20:57:54.881Z,97610.97
2023-12-26T21:00:29.537Z,97611.75
2023-12-26T21:02:59.839Z,97614.13
2023-12-26T21:05:29.188Z,97611.13
2023-12-26T21:07:59.295Z,97607.06
2023-12-26T21:10:28.855Z,97613.84
2023-12-26T21:13:00.924Z,97612.00
2023-12-26T21:15:30.169Z,97610.50
2023-12-26T21:18:00.491Z,97613.84
2023-12-26T21:20:30.405Z,97617.88
2023-12-26T21:22:59.654Z,97617.41
2023-12-26T21:25:28.919Z,97618.63
2023-12-26T21:28:00.254Z,97613.38
2023-12-26T21:30:30.436Z,97616.38
2023-12-26T21:32:59.810Z,97613.53
2023-12-26T21:35:29.022Z,97607.53
2023-12-26T21:37:58.320Z,97621.31
2023-12-26T21:40:27.701Z,97624.94
2023-12-26T21:42:58.173Z,97612.00
2023-12-26T21:45:27.389Z,97615.63
2023-12-26T21:47:56.972Z,97618.19
2023-12-26T21:50:26.376Z,97617.72
2023-12-26T21:52:55.511Z,97617.13
2023-12-26T21:55:24.610Z,97622.22
2023-12-26T21:57:54.004Z,97629.00
2023-12-26T22:00:25.502Z,97620.88
2023-12-26T22:02:56.342Z,97606.59
2023-12-26T22:05:25.624Z,97620.13
2023-12-26T22:07:55.225Z,97609.75
2023-12-26T22:10:24.688Z,97618.47
2023-12-26T22:12:53.857Z,97618.47
2023-12-26T22:15:24.750Z,97618.63
2023-12-26T22:17:54.278Z,97617.13
2023-12-26T22:20:23.576Z,97618.00
2023-12-26T22:22:52.702Z,97615.00
2023-12-26T22:25:22.263Z,97616.38
2023-12-26T22:27:51.520Z,97608.41
2023-12-26T22:30:21.548Z,97613.19
2023-12-26T22:32:53.627Z,97615.63
2023-12-26T22:35:22.086Z,97616.53
2023-12-26T22:37:51.534Z,97614.13
2023-12-26T22:40:23.637Z,97609.75
2023-12-26T22:42:53.428Z,97614.72
2023-12-26T22:45:22.820Z,97612.63
2023-12-26T22:47:53.956Z,97618.34
2023-12-26T22:50:23.131Z,97608.88
2023-12-26T22:52:53.219Z,97617.13
2023-12-26T22:55:22.435Z,97616.56
2023-12-26T22:57:51.546Z,97613.84
2023-12-26T23:00:22.745Z,97615.06
2023-12-26T23:02:53.441Z,97617.31
2023-12-26T23:05:24.513Z,97616.28
2023-12-26T23:07:55.495Z,97616.28
2023-12-26T23:10:25.001Z,97614.44
2023-12-26T23:12:54.186Z,97613.41
2023-12-26T23:15:23.677Z,97603.94
2023-12-26T23:17:54.519Z,97605.44
2023-12-26T23:20:23.789Z,97606.94
2023-12-26T23:22:52.972Z,97606.66
2023-12-26T23:25:22.203Z,97613.38
2023-12-26T23:27:51.309Z,97608.16
2023-12-26T23:30:20.533Z,97614.16
2023-12-26T23:32:49.915Z,97608.00
2023-12-26T23:35:20.703Z,97609.63
2023-12-26T23:37:50.051Z,97614.75
2023-12-26T23:40:19.282Z,97622.13
2023-12-26T23:42:48.384Z,97618.81
2023-12-26T23:45:17.716Z,97618.06
2023-12-26T23:47:47.024Z,97618.22
2023-12-26T23:50:16.397Z,97616.56
2023-12-26T23:52:46.902Z,97621.81
2023-12-26T23:55:16.196Z,97614.47
2023-12-26T23:57:45.452Z,97617.00
